Station Historical Data
Daily Summary for August 7, 2017 Units:  Metric    English   Both
« Previous Day
Next Day »
Daily Weekly Monthly Yearly Custom
  High: Low: Average:
Temperature: 26.9 °C 21.2 °C 23.9 °C
Dew Point: 24.1 °C 20.1 °C 22.1 °C
Humidity: 94% 78% 90%
Wind Speed: 1.6km/h 0km/h 0km/h
Wind Gust: 8km/h - -
Wind- - NW
Pressure: 1017.5 hPa 1014.4 hPa -
Precipitation: 31.75 mm    
Historical Graphs
 
 
Tabular Data for August 7, 2017
Time Temperature Dew Point Pressure Wind Wind Speed Wind Gust Humidity Rainfall Rate (Hourly) Conditions
00:00 22.5 °C 21.3 °C 1016.8 hPa Calm     93% 0 mm RA
00:05 22.6 °C 21.4 °C 1016.8 hPa Calm     93% 0 mm BKN
00:10 22.6 °C 21.4 °C 1016.8 hPa Calm     93% 0 mm BKN
00:15 22.6 °C 21.3 °C 1016.8 hPa Calm     93% 0 mm BKN
00:20 22.5 °C 21.3 °C 1016.8 hPa Calm     93% 0 mm BKN
00:25 22.5 °C 21.3 °C 1016.8 hPa Calm     93% 0 mm BKN
00:30 22.6 °C 21.4 °C 1017.2 hPa Calm     93% 0 mm BKN
00:35 22.6 °C 21.4 °C 1017.2 hPa Calm     93% 0 mm BKN
00:40 22.6 °C 21.4 °C 1017.2 hPa Calm     93% 0 mm BKN
00:45 22.6 °C 21.4 °C 1017.2 hPa Calm     93% 0 mm BKN
00:50 22.6 °C 21.4 °C 1017.5 hPa Calm     93% 0 mm -RA
00:55 22.5 °C 21.3 °C 1017.2 hPa Calm   1.6 km/h 93% 0 mm -RA
01:00 22.4 °C 21.2 °C 1017.2 hPa Calm   1.6 km/h 93% 0 mm -RA
01:05 22.3 °C 21.1 °C 1017.2 hPa Calm     93% 0 mm -RA
01:10 22.2 °C 21.1 °C 1017.2 hPa Calm   1.6 km/h 93% 3.3 mm -RA
01:15 22.2 °C 21 °C 1016.8 hPa Calm     93% 0.25 mm -RA
01:20 22.1 °C 20.9 °C 1016.8 hPa Calm     93% 0.25 mm -RA
01:25 22.1 °C 20.9 °C 1016.8 hPa Calm     93% 0 mm -RA
01:30 22.1 °C 20.9 °C 1016.5 hPa Calm     93% 0 mm -RA
01:35 22 °C 20.8 °C 1016.5 hPa Calm     93% 0 mm -RA
01:40 21.9 °C 20.8 °C 1016.5 hPa Calm     93% 0 mm -RA
01:45 22 °C 20.8 °C 1016.5 hPa Calm     93% 0 mm -RA
01:50 21.9 °C 20.8 °C 1016.5 hPa Calm     93% 0 mm SCT
01:55 21.9 °C 20.7 °C 1016.5 hPa Calm     93% 0 mm SCT
02:00 21.9 °C 20.7 °C 1016.5 hPa Calm     93% 0 mm SCT
02:05 21.8 °C 20.7 °C 1016.5 hPa Calm     93% 0 mm SCT
02:10 21.9 °C 20.7 °C 1016.1 hPa Calm     93% 0 mm SCT
02:15 21.9 °C 20.7 °C 1016.5 hPa Calm     93% 0.25 mm SCT
02:25 21.9 °C 20.8 °C 1016.1 hPa Calm     93% 0 mm BKN
02:30 21.9 °C 20.8 °C 1016.1 hPa Calm     93% 0 mm BKN
02:35 22 °C 20.8 °C 1016.1 hPa Calm     93% 0 mm BKN
02:40 22 °C 20.8 °C 1016.1 hPa Calm     93% 0 mm BKN
02:45 22 °C 21 °C 1016.1 hPa Calm     94% 0 mm BKN
02:50 22 °C 21 °C 1016.1 hPa Calm     94% 0 mm BKN
02:55 22.1 °C 21.1 °C 1015.8 hPa Calm     94% 0 mm BKN
03:00 22.1 °C 21.1 °C 1016.1 hPa Calm     94% 0 mm BKN
03:05 22.1 °C 21.1 °C 1016.1 hPa Calm     94% 0 mm BKN
03:10 22.2 °C 21.2 °C 1016.1 hPa Calm     94% 0 mm BKN
03:15 22.2 °C 21.2 °C 1015.8 hPa Calm   1.6 km/h 94% 0.25 mm RA
03:20 22.2 °C 21.2 °C 1016.1 hPa Calm     94% 0 mm BKN
03:25 22.3 °C 21.3 °C 1016.1 hPa Calm     94% 0.25 mm RA
03:30 22.3 °C 21.3 °C 1016.1 hPa Calm     94% 0.25 mm -DZ
03:40 22.3 °C 21.3 °C 1016.5 hPa Calm     94% 0.76 mm -DZ
03:45 22.4 °C 21.4 °C 1016.1 hPa Calm     94% 1.02 mm -RA
03:50 22.4 °C 21.4 °C 1016.1 hPa Calm     94% 0.76 mm -RA
03:55 22.4 °C 21.4 °C 1016.1 hPa Calm     94% 0.51 mm RA
04:00 22.4 °C 21.4 °C 1016.1 hPa Calm     94% 0.25 mm RA
04:05 22.4 °C 21.4 °C 1016.1 hPa Calm     94% 0.51 mm RA
04:10 22.4 °C 21.4 °C 1016.1 hPa Calm     94% 0.25 mm RA
04:15 22.4 °C 21.4 °C 1015.8 hPa Calm     94% 0.25 mm -RA
04:20 22.4 °C 21.4 °C 1015.8 hPa Calm     94% 0.25 mm -RA
04:25 22.4 °C 21.4 °C 1015.8 hPa Calm     94% 0 mm -RA
04:30 22.4 °C 21.4 °C 1015.8 hPa Calm     94% 0 mm -RA
04:40 22.4 °C 21.4 °C 1015.8 hPa Calm     94% 0 mm -RA
04:45 22.4 °C 21.4 °C 1015.8 hPa Calm     94% 0 mm -RA
04:50 22.4 °C 21.4 °C 1015.8 hPa Calm     94% 0 mm -RA
04:55 22.5 °C 21.5 °C 1015.8 hPa Calm     94% 0 mm -RA
05:00 22.5 °C 21.5 °C 1015.8 hPa Calm     94% 0 mm -RA
05:05 22.5 °C 21.5 °C 1015.8 hPa Calm     94% 0 mm -RA
05:10 22.6 °C 21.6 °C 1015.8 hPa Calm     94% 0 mm -RA
05:15 22.6 °C 21.6 °C 1015.8 hPa Calm     94% 0 mm -RA
05:20 22.6 °C 21.6 °C 1015.8 hPa Calm     94% 0 mm OVC
05:25 22.7 °C 21.6 °C 1015.8 hPa Calm     94% 0 mm OVC
05:30 22.7 °C 21.7 °C 1015.8 hPa Calm     94% 0.51 mm -DZ
05:35 22.7 °C 21.7 °C 1016.1 hPa Calm     94% 0.51 mm -DZ
05:40 22.7 °C 21.7 °C 1016.1 hPa Calm   3.2 km/h 94% 0.51 mm -DZ
05:45 22.7 °C 21.7 °C 1016.1 hPa Calm   3.2 km/h 94% 0.51 mm -DZ
05:50 22.4 °C 21.4 °C 1016.5 hPa Calm   3.2 km/h 94% 2.79 mm -DZ
05:55 21.9 °C 20.8 °C 1016.1 hPa Calm   1.6 km/h 93% 2.79 mm +RA
06:00 21.6 °C 20.4 °C 1016.1 hPa Calm     93% 0.76 mm +RA
06:10 21.4 °C 20.2 °C 1015.8 hPa Calm     93% 0 mm +RA
06:15 21.3 °C 20.2 °C 1015.8 hPa Calm     93% 0.25 mm -RA
06:20 21.3 °C 20.1 °C 1015.8 hPa Calm     93% 0 mm -RA
06:25 21.3 °C 20.3 °C 1015.8 hPa Calm     94% 0 mm -RA
06:30 21.2 °C 20.2 °C 1015.8 hPa Calm     94% 0 mm -RA
06:35 21.2 °C 20.2 °C 1016.1 hPa Calm     94% 0 mm -RA
06:40 21.2 °C 20.2 °C 1016.1 hPa Calm     94% 0 mm -RA
06:45 21.3 °C 20.3 °C 1016.1 hPa Calm     94% 0 mm -RA
06:50 21.3 °C 20.3 °C 1016.1 hPa Calm     94% 0 mm BKN
06:55 21.4 °C 20.4 °C 1016.1 hPa Calm     94% 0 mm BKN
07:00 21.4 °C 20.4 °C 1015.8 hPa Calm     94% 0 mm BKN
07:05 21.5 °C 20.5 °C 1016.1 hPa Calm     94% 0 mm -RA
07:10 21.6 °C 20.6 °C 1016.1 hPa Calm     94% 0 mm -RA
07:15 21.7 °C 20.7 °C 1016.1 hPa Calm     94% 0 mm -RA
07:20 21.7 °C 20.7 °C 1016.1 hPa Calm     94% 0 mm OVC
07:25 21.8 °C 20.8 °C 1016.1 hPa Calm     94% 0 mm OVC
07:30 21.8 °C 20.8 °C 1016.1 hPa Calm   1.6 km/h 94% 0 mm OVC
07:35 21.9 °C 20.9 °C 1016.1 hPa Calm     94% 0 mm OVC
07:40 22 °C 21 °C 1016.1 hPa Calm     94% 0 mm OVC
07:45 22.1 °C 21.1 °C 1016.1 hPa Calm     94% 0 mm OVC
07:50 22.2 °C 21.2 °C 1016.1 hPa Calm     94% 0 mm OVC
07:55 22.2 °C 21.2 °C 1016.1 hPa Calm     94% 0 mm OVC
08:00 22.3 °C 21.3 °C 1016.1 hPa Calm     94% 0 mm OVC
08:05 22.3 °C 21.3 °C 1016.1 hPa Calm     94% 0 mm OVC
08:10 22.4 °C 21.4 °C 1016.1 hPa Calm     94% 0 mm OVC
08:15 22.4 °C 21.4 °C 1016.1 hPa Calm   1.6 km/h 94% 0 mm OVC
08:20 22.4 °C 21.4 °C 1016.1 hPa Calm   1.6 km/h 94% 0 mm OVC
08:25 22.5 °C 21.5 °C 1016.1 hPa Calm   1.6 km/h 94% 0 mm OVC
08:30 22.5 °C 21.5 °C 1016.1 hPa Calm     94% 0 mm OVC
08:35 22.6 °C 21.6 °C 1016.1 hPa Calm     94% 0 mm OVC
08:40 22.6 °C 21.6 °C 1016.1 hPa Calm     94% 0 mm OVC
08:45 22.6 °C 21.6 °C 1016.1 hPa Calm   1.6 km/h 94% 0 mm OVC
08:50 22.6 °C 21.6 °C 1016.5 hPa Calm   1.6 km/h 94% 0 mm OVC
08:55 22.7 °C 21.7 °C 1016.5 hPa Calm     94% 0 mm OVC
09:00 22.7 °C 21.7 °C 1016.5 hPa Calm     94% 0 mm OVC
09:05 22.7 °C 21.7 °C 1016.5 hPa Calm   1.6 km/h 94% 0 mm OVC
09:10 22.8 °C 21.8 °C 1016.5 hPa Calm   1.6 km/h 94% 0 mm OVC
09:15 22.8 °C 21.8 °C 1016.5 hPa Calm   1.6 km/h 94% 0 mm OVC
09:20 22.8 °C 21.8 °C 1016.5 hPa Calm   1.6 km/h 94% 0 mm OVC
09:25 22.9 °C 21.9 °C 1016.5 hPa Calm     94% 0 mm OVC
09:30 23.1 °C 22 °C 1016.5 hPa Calm     94% 0 mm OVC
09:40 23.3 °C 22.3 °C 1016.5 hPa Calm     94% 0 mm OVC
09:45 23.3 °C 22.3 °C 1016.5 hPa Calm   1.6 km/h 94% 0 mm OVC
09:50 23.4 °C 22.4 °C 1016.1 hPa Calm     94% 0 mm OVC
09:55 23.5 °C 22.5 °C 1016.1 hPa Calm   3.2 km/h 94% 0 mm OVC
10:00 23.4 °C 22.4 °C 1016.5 hPa Calm   1.6 km/h 94% 0 mm OVC
10:05 23.5 °C 22.5 °C 1016.5 hPa Calm     94% 0 mm OVC
10:10 23.4 °C 22.4 °C 1016.5 hPa Calm   1.6 km/h 94% 0 mm OVC
10:15 23.3 °C 22.3 °C 1016.5 hPa Calm   1.6 km/h 94% 0 mm OVC
10:20 23.3 °C 22.3 °C 1016.5 hPa Calm   1.6 km/h 94% 0 mm OVC
10:25 23.4 °C 22.4 °C 1016.5 hPa Calm     94% 0 mm OVC
10:30 23.5 °C 22.5 °C 1016.5 hPa Calm   1.6 km/h 94% 0 mm OVC
10:35 23.5 °C 22.5 °C 1016.5 hPa Calm   1.6 km/h 94% 0 mm OVC
10:40 23.6 °C 22.6 °C 1016.5 hPa Calm   1.6 km/h 94% 0 mm OVC
10:45 23.6 °C 22.6 °C 1016.5 hPa Calm   1.6 km/h 94% 0 mm OVC
10:50 23.7 °C 22.4 °C 1016.8 hPa Calm     93% 0 mm OVC
10:55 23.7 °C 22.5 °C 1016.8 hPa Calm   1.6 km/h 93% 0 mm OVC
11:00 23.7 °C 22.5 °C 1016.8 hPa Calm   1.6 km/h 93% 0 mm OVC
11:05 23.9 °C 22.7 °C 1016.8 hPa Calm   1.6 km/h 93% 0 mm OVC
11:10 24.2 °C 22.9 °C 1016.8 hPa Calm   1.6 km/h 93% 0 mm OVC
11:15 24.4 °C 23.3 °C 1016.8 hPa Calm   3.2 km/h 93% 0 mm OVC
11:20 24.7 °C 23.1 °C 1016.8 hPa Calm   3.2 km/h 91% 0 mm OVC
11:25 24.9 °C 23.4 °C 1016.8 hPa Calm   1.6 km/h 91% 0 mm OVC
11:30 25 °C 23.1 °C 1016.8 hPa Calm   1.6 km/h 89% 0 mm OVC
11:35 25 °C 22.7 °C 1016.8 hPa Calm   3.2 km/h 87% 0 mm OVC
11:40 25.1 °C 23 °C 1016.8 hPa Calm   1.6 km/h 88% 0 mm OVC
11:45 25.1 °C 23 °C 1016.8 hPa Calm   3.2 km/h 88% 0 mm OVC
11:50 25 °C 22.7 °C 1017.2 hPa Calm     87% 0 mm OVC
11:55 25 °C 22.9 °C 1017.2 hPa Calm     88% 0 mm OVC
12:00 24.9 °C 22.8 °C 1017.2 hPa Calm     88% 0 mm OVC
12:05 25 °C 23.1 °C 1017.2 hPa Calm   1.6 km/h 89% 0 mm OVC
12:10 25 °C 23.1 °C 1016.8 hPa Calm   1.6 km/h 89% 0 mm OVC
12:15 25.2 °C 23.2 °C 1016.8 hPa Calm   1.6 km/h 89% 0 mm OVC
12:20 25.3 °C 23.2 °C 1016.8 hPa Calm   1.6 km/h 88% 0 mm BKN
12:25 25.6 °C 23.3 °C 1016.8 hPa Calm     87% 0 mm BKN
12:30 25.8 °C 23.4 °C 1016.8 hPa Calm   1.6 km/h 87% 0 mm BKN
12:35 25.8 °C 23.1 °C 1016.8 hPa Calm   1.6 km/h 85% 0 mm BKN
12:40 25.8 °C 23.1 °C 1016.8 hPa Calm   3.2 km/h 85% 0 mm BKN
12:45 25.6 °C 23.2 °C 1016.8 hPa Calm   1.6 km/h 87% 0 mm BKN
12:50 25.3 °C 22.9 °C 1016.8 hPa Calm     87% 0 mm BKN
13:00 24.8 °C 22.9 °C 1016.8 hPa Calm   3.2 km/h 89% 1.78 mm RA
13:05 24.6 °C 22.6 °C 1016.8 hPa Calm   1.6 km/h 89% 1.52 mm RA
13:10 24.6 °C 23 °C 1016.5 hPa Calm   1.6 km/h 91% 0 mm OVC
13:15 24.8 °C 23.4 °C 1016.5 hPa Calm     92% 0 mm OVC
13:20 24.8 °C 23.4 °C 1016.5 hPa Calm     92% 0 mm OVC
13:25 25 °C 23.6 °C 1016.5 hPa Calm   3.2 km/h 92% 0 mm OVC
13:30 25 °C 23.6 °C 1016.5 hPa Calm     92% 0 mm OVC
13:35 24.8 °C 23.4 °C 1016.5 hPa Calm     92% 0 mm OVC
13:40 24.8 °C 23.4 °C 1016.5 hPa Calm     92% 0 mm OVC
13:45 24.8 °C 23.4 °C 1016.5 hPa Calm     92% 0 mm OVC
13:55 24.7 °C 23.1 °C 1016.5 hPa Calm   1.6 km/h 91% 0 mm OVC
14:00 24.7 °C 23.2 °C 1016.5 hPa Calm     91% 0 mm OVC
14:05 24.8 °C 23.4 °C 1016.1 hPa Calm     92% 0 mm OVC
14:10 24.9 °C 23.3 °C 1016.1 hPa Calm   1.6 km/h 91% 0 mm OVC
14:15 24.9 °C 23.1 °C 1016.1 hPa Calm   3.2 km/h 90% 0 mm OVC
14:20 25.1 °C 23.3 °C 1016.1 hPa Calm     90% 0 mm -RA
14:25 25.4 °C 23.8 °C 1015.8 hPa Calm     91% 0 mm -RA
14:30 25.6 °C 23.3 °C 1015.8 hPa Calm     87% 0 mm OVC
14:35 25.9 °C 23.8 °C 1015.8 hPa Calm   1.6 km/h 88% 0 mm OVC
14:40 26.2 °C 23.1 °C 1015.8 hPa Calm   1.6 km/h 83% 0 mm OVC
14:45 26.3 °C 23.6 °C 1015.8 hPa Calm   1.6 km/h 85% 0 mm OVC
14:50 26.3 °C 23.3 °C 1015.8 hPa Calm   1.6 km/h 84% 0 mm OVC
14:55 26.3 °C 23.6 °C 1015.8 hPa Calm   3.2 km/h 85% 0 mm OVC
15:00 26.4 °C 23.4 °C 1015.8 hPa Calm   1.6 km/h 84% 0 mm OVC
15:05 26.6 °C 23.7 °C 1015.8 hPa Calm   1.6 km/h 84% 0 mm OVC
15:10 26.8 °C 23.7 °C 1015.8 hPa Calm   1.6 km/h 83% 0 mm OVC
15:15 26.9 °C 23.8 °C 1015.5 hPa Calm   3.2 km/h 83% 0 mm OVC
15:20 26.9 °C 23.6 °C 1015.5 hPa Calm     82% 0 mm OVC
15:25 26.8 °C 23.3 °C 1015.5 hPa Calm     81% 0 mm OVC
15:30 26.8 °C 23.1 °C 1015.5 hPa Calm   3.2 km/h 80% 0 mm OVC
15:35 26.8 °C 23.2 °C 1015.5 hPa Calm     81% 0 mm OVC
15:40 26.8 °C 23.7 °C 1015.1 hPa Calm   1.6 km/h 83% 0 mm OVC
15:45 26.7 °C 23.8 °C 1015.1 hPa Calm     84% 0 mm OVC
15:50 26.7 °C 23.3 °C 1015.1 hPa Calm   1.6 km/h 82% 0 mm OVC
15:55 26.6 °C 23.3 °C 1015.1 hPa Calm   1.6 km/h 82% 0 mm OVC
16:00 26.6 °C 23.2 °C 1015.1 hPa Calm     82% 0 mm OVC
16:05 26.6 °C 23.6 °C 1015.1 hPa Calm   1.6 km/h 84% 0 mm OVC
16:10 26.4 °C 23.4 °C 1015.1 hPa Calm   1.6 km/h 84% 0 mm OVC
16:15 26.2 °C 23.3 °C 1014.8 hPa Calm   1.6 km/h 84% 0 mm OVC
16:25 26.1 °C 23.6 °C 1014.8 hPa Calm   1.6 km/h 86% 0 mm -RA
16:30 26 °C 23.7 °C 1014.8 hPa Calm     87% 0 mm -RA
16:40 26.2 °C 24 °C 1014.8 hPa Calm   1.6 km/h 88% 0 mm -RA
16:45 26.2 °C 23.1 °C 1014.8 hPa Calm     83% 0 mm -RA
16:50 26.3 °C 23 °C 1014.8 hPa Calm   1.6 km/h 82% 0 mm BKN
16:55 26.5 °C 23.3 °C 1014.8 hPa Calm     83% 0 mm BKN
17:00 26.7 °C 23.6 °C 1014.8 hPa Calm   1.6 km/h 83% 0 mm BKN
17:05 26.8 °C 23.4 °C 1014.4 hPa Calm     82% 0 mm BKN
17:10 26.9 °C 23.6 °C 1014.4 hPa Calm     82% 0 mm BKN
17:15 26.9 °C 23.8 °C 1014.4 hPa Calm     83% 0 mm BKN
17:20 26.9 °C 23.7 °C 1014.4 hPa Calm     83% 0 mm BKN
17:25 26.8 °C 23.8 °C 1014.4 hPa Calm     84% 0 mm BKN
17:30 26.7 °C 24 °C 1014.4 hPa Calm     85% 0 mm BKN
17:35 26.6 °C 23.9 °C 1014.4 hPa Calm     85% 0 mm BKN
17:40 26.5 °C 23.8 °C 1014.4 hPa Calm     85% 0 mm BKN
17:45 26.4 °C 23.7 °C 1014.4 hPa Calm     85% 0 mm BKN
17:50 26.4 °C 23.7 °C 1014.4 hPa Calm     85% 0 mm BKN
17:55 26.5 °C 23.9 °C 1014.4 hPa Calm     86% 0 mm BKN
18:00 26.7 °C 24.1 °C 1014.4 hPa Calm     86% 0 mm BKN
18:05 26.8 °C 23.8 °C 1014.4 hPa Calm     84% 0 mm BKN
18:10 26.8 °C 23.7 °C 1014.4 hPa Calm     83% 0 mm BKN
18:15 26.8 °C 23.7 °C 1014.4 hPa Calm     83% 0 mm BKN
18:20 26.6 °C 22.9 °C 1014.4 hPa Calm     80% 0 mm BKN
18:25 26.5 °C 22.6 °C 1014.4 hPa Calm   1.6 km/h 79% 0 mm BKN
18:30 26.3 °C 22.3 °C 1014.4 hPa Calm   1.6 km/h 79% 0 mm BKN
18:35 26.2 °C 22.7 °C 1014.8 hPa Calm   1.6 km/h 81% 0 mm BKN
18:40 26 °C 21.9 °C 1014.4 hPa Calm   1.6 km/h 78% 0 mm BKN
18:45 25.9 °C 22 °C 1014.4 hPa Calm     79% 0 mm BKN
18:50 25.8 °C 21.9 °C 1014.4 hPa Calm     79% 0 mm BKN
18:55 25.8 °C 21.8 °C 1014.4 hPa Calm     79% 0 mm BKN
19:00 25.7 °C 21.9 °C 1014.4 hPa Calm     80% 0 mm BKN
19:05 25.6 °C 21.9 °C 1014.4 hPa Calm     80% 0 mm BKN
19:10 25.6 °C 21.6 °C 1014.4 hPa Calm     79% 0 mm BKN
19:15 25.5 °C 22.2 °C 1014.4 hPa Calm     82% 0 mm BKN
19:20 25.4 °C 21.9 °C 1014.4 hPa Calm     81% 0 mm BKN
19:25 25.3 °C 21.8 °C 1014.4 hPa Calm     81% 0 mm BKN
19:30 25.3 °C 22 °C 1014.4 hPa Calm     82% 0 mm BKN
19:35 25.2 °C 21.9 °C 1014.4 hPa Calm     82% 0 mm BKN
19:40 25.1 °C 22.1 °C 1014.4 hPa Calm     83% 0 mm BKN
19:45 25.1 °C 22 °C 1014.4 hPa Calm     83% 0 mm BKN
19:50 25 °C 21.7 °C 1014.4 hPa Calm     82% 0 mm BKN
19:55 24.9 °C 21.8 °C 1014.4 hPa Calm     83% 0 mm BKN
20:00 24.9 °C 21.8 °C 1014.4 hPa Calm     83% 0 mm BKN
20:05 24.8 °C 21.9 °C 1014.4 hPa Calm     84% 0 mm BKN
20:10 24.8 °C 21.9 °C 1014.8 hPa Calm     84% 0 mm BKN
20:15 24.7 °C 21.8 °C 1014.8 hPa Calm     84% 0 mm BKN
20:20 24.7 °C 22 °C 1014.8 hPa Calm     85% 0 mm BKN
20:25 24.6 °C 21.9 °C 1014.8 hPa Calm     85% 0 mm BKN
20:30 24.6 °C 21.8 °C 1014.8 hPa Calm     85% 0 mm BKN
20:35 24.4 °C 21.9 °C 1014.8 hPa Calm     86% 0 mm BKN
20:40 24.4 °C 21.9 °C 1014.8 hPa Calm     86% 0 mm BKN
20:45 24.4 °C 21.9 °C 1014.8 hPa Calm     86% 0 mm BKN
20:50 24.4 °C 21.9 °C 1014.8 hPa Calm     86% 0 mm BKN
20:55 24.3 °C 21.8 °C 1014.8 hPa Calm     86% 0 mm BKN
21:00 24.3 °C 21.8 °C 1015.1 hPa Calm     86% 0 mm BKN
21:10 24.3 °C 22 °C 1015.1 hPa Calm     87% 0 mm BKN
21:15 24.3 °C 21.9 °C 1015.5 hPa Calm     87% 0 mm BKN
21:20 24.2 °C 21.9 °C 1015.5 hPa Calm     87% 0 mm BKN
21:25 24.2 °C 22.1 °C 1015.5 hPa Calm     88% 0 mm BKN
21:30 24.2 °C 21.9 °C 1015.5 hPa Calm     87% 0 mm BKN
21:35 24.2 °C 22.1 °C 1015.5 hPa Calm     88% 0 mm BKN
21:40 24.1 °C 22 °C 1015.5 hPa Calm     88% 0 mm BKN
21:45 24.1 °C 21.9 °C 1015.5 hPa Calm     88% 0 mm BKN
21:50 24 °C 21.9 °C 1015.5 hPa Calm     88% 0 mm BKN
21:55 24 °C 21.9 °C 1015.8 hPa Calm     88% 0 mm BKN
22:00 23.9 °C 21.8 °C 1015.8 hPa Calm     88% 0 mm BKN
22:05 23.9 °C 21.8 °C 1015.8 hPa Calm     88% 0 mm BKN
22:10 23.9 °C 21.8 °C 1015.8 hPa Calm     88% 0 mm BKN
22:15 23.9 °C 22 °C 1015.8 hPa Calm     89% 0 mm BKN
22:20 23.9 °C 21.9 °C 1016.1 hPa Calm     89% 0 mm BKN
22:25 23.9 °C 21.9 °C 1016.1 hPa Calm     89% 0 mm BKN
22:30 23.9 °C 22 °C 1016.1 hPa Calm     89% 0 mm BKN
22:40 23.9 °C 22 °C 1016.1 hPa Calm     89% 0 mm BKN
22:45 24 °C 22.1 °C 1016.1 hPa Calm     89% 0 mm BKN
22:50 24.1 °C 22.1 °C 1016.1 hPa Calm     89% 0 mm BKN
22:55 24.1 °C 22.1 °C 1015.8 hPa Calm     89% 0 mm BKN
23:00 24.1 °C 22.4 °C 1016.1 hPa Calm     90% 0 mm BKN
23:10 24.2 °C 22.4 °C 1015.8 hPa Calm     90% 0 mm BKN
23:25 24.1 °C 22.4 °C 1016.1 hPa Calm     90% 0 mm BKN
23:30 24.1 °C 22.3 °C 1016.1 hPa Calm     90% 0 mm BKN
23:35 24.1 °C 22.6 °C 1016.1 hPa Calm     91% 0 mm BKN
23:40 24.2 °C 22.6 °C 1016.1 hPa North 1.6 km/h 4.8 km/h 91% 0 mm BKN
23:45 23.9 °C 22.1 °C 1016.5 hPa WNW 1.6 km/h 8 km/h 89% 1.27 mm RA
23:50 23.2 °C 21.1 °C 1016.8 hPa Calm   3.2 km/h 88% 5.33 mm RA
23:55 22.6 °C 20.8 °C 1016.8 hPa Calm   3.2 km/h 90% 2.79 mm RA
Piedmont Bend
Compliments of Weather Underground - 2 mb